createdAt,value
2023-05-19T00:01:15.083Z,70.50
2023-05-19T00:03:54.800Z,71.20
2023-05-19T00:06:25.976Z,70.90
2023-05-19T00:09:00.796Z,70.90
2023-05-19T00:11:28.098Z,71.00
2023-05-19T00:13:55.715Z,71.00
2023-05-19T00:16:23.627Z,71.20
2023-05-19T00:18:51.687Z,71.30
2023-05-19T00:21:18.852Z,71.40
2023-05-19T00:23:45.734Z,71.50
2023-05-19T00:26:12.687Z,71.60
2023-05-19T00:28:49.131Z,71.70
2023-05-19T00:31:16.028Z,71.70
2023-05-19T00:33:42.889Z,71.80
2023-05-19T00:36:09.900Z,71.90
2023-05-19T00:38:37.046Z,71.90
2023-05-19T00:41:04.574Z,72.00
2023-05-19T00:43:31.470Z,72.00
2023-05-19T00:45:58.419Z,72.00
2023-05-19T00:48:25.655Z,72.00
2023-05-19T00:50:54.713Z,72.20
2023-05-19T00:53:21.756Z,72.30
2023-05-19T00:55:48.577Z,72.30
2023-05-19T00:58:15.402Z,72.30
2023-05-19T01:00:43.307Z,72.40
2023-05-19T01:03:13.213Z,72.50
2023-05-19T01:05:44.832Z,72.50
2023-05-19T01:08:11.880Z,72.60
2023-05-19T01:10:38.709Z,72.70
2023-05-19T01:13:05.847Z,72.80
2023-05-19T01:15:36.296Z,72.80
2023-05-19T01:18:14.499Z,72.90
2023-05-19T01:20:52.550Z,73.10
2023-05-19T01:23:36.648Z,73.00
2023-05-19T01:26:23.617Z,73.20
2023-05-19T01:29:19.068Z,73.20
2023-05-19T01:31:47.837Z,73.10
2023-05-19T01:34:14.796Z,73.00
2023-05-19T01:36:41.999Z,73.10
2023-05-19T01:39:08.974Z,73.30
2023-05-19T01:41:36.165Z,73.40
2023-05-19T01:44:02.987Z,73.50
2023-05-19T01:46:29.997Z,73.60
2023-05-19T01:48:56.914Z,73.80
2023-05-19T01:51:23.718Z,73.80
2023-05-19T01:53:50.581Z,74.00
2023-05-19T01:56:22.006Z,74.10
2023-05-19T01:58:53.350Z,74.30
2023-05-19T02:01:23.319Z,74.30
2023-05-19T02:04:03.386Z,74.50
2023-05-19T02:06:33.185Z,74.70
2023-05-19T02:09:10.698Z,74.60
2023-05-19T02:11:38.069Z,74.90
2023-05-19T02:14:10.336Z,74.80
2023-05-19T02:16:37.876Z,75.00
2023-05-19T02:19:05.211Z,75.00
2023-05-19T02:21:33.726Z,75.20
2023-05-19T02:24:00.877Z,75.40
2023-05-19T02:26:27.666Z,75.50
2023-05-19T02:28:55.043Z,75.50
2023-05-19T02:31:21.969Z,75.60
2023-05-19T02:33:52.434Z,75.70
2023-05-19T02:36:19.391Z,75.90
2023-05-19T02:38:46.258Z,76.00
2023-05-19T02:41:13.081Z,76.10
2023-05-19T02:43:40.047Z,76.20
2023-05-19T02:46:06.931Z,76.30
2023-05-19T02:48:33.930Z,76.40
2023-05-19T02:51:00.783Z,76.50
2023-05-19T02:53:27.716Z,76.50
2023-05-19T02:55:54.647Z,76.60
2023-05-19T02:58:21.506Z,76.70
2023-05-19T03:00:48.379Z,76.90
2023-05-19T03:03:15.353Z,77.00
2023-05-19T03:05:42.668Z,77.10
2023-05-19T03:08:09.706Z,77.20
2023-05-19T03:10:36.585Z,77.30
2023-05-19T03:13:03.402Z,77.30
2023-05-19T03:15:30.714Z,77.40
2023-05-19T03:17:57.777Z,77.60
2023-05-19T03:20:24.687Z,77.60
2023-05-19T03:22:54.225Z,77.70
2023-05-19T03:25:21.225Z,77.80
2023-05-19T03:27:48.155Z,77.90
2023-05-19T03:30:15.317Z,78.00
2023-05-19T03:32:56.731Z,78.10
2023-05-19T03:35:23.644Z,78.10
2023-05-19T03:37:50.508Z,78.20
2023-05-19T03:40:18.825Z,78.30
2023-05-19T03:42:45.793Z,78.20
2023-05-19T03:45:12.735Z,78.20
2023-05-19T03:47:40.201Z,78.20
2023-05-19T03:50:29.150Z,78.30
2023-05-19T03:53:12.396Z,78.30
2023-05-19T03:55:41.243Z,78.40
2023-05-19T03:58:08.069Z,78.40
2023-05-19T04:00:36.741Z,78.60
2023-05-19T04:03:03.711Z,78.50
2023-05-19T04:05:30.540Z,78.60
2023-05-19T04:07:57.401Z,78.60
2023-05-19T04:10:24.259Z,78.70
2023-05-19T04:12:51.155Z,78.80
2023-05-19T04:15:17.989Z,79.40
2023-05-19T04:17:44.788Z,79.00
2023-05-19T04:20:12.472Z,79.00
2023-05-19T04:22:39.363Z,79.00
2023-05-19T04:25:07.571Z,79.00
2023-05-19T04:27:38.942Z,79.10
2023-05-19T04:30:06.887Z,79.20
2023-05-19T04:32:33.930Z,79.30
2023-05-19T04:35:00.935Z,79.40
2023-05-19T04:37:29.927Z,79.40
2023-05-19T04:39:57.693Z,79.50
2023-05-19T04:42:30.536Z,79.60
2023-05-19T04:44:59.031Z,79.60
2023-05-19T04:47:30.114Z,79.50
2023-05-19T04:49:57.365Z,79.50
2023-05-19T04:52:24.681Z,79.40
2023-05-19T04:54:52.889Z,79.40
2023-05-19T04:57:19.864Z,79.40
2023-05-19T04:59:49.700Z,79.40
2023-05-19T05:02:16.556Z,79.30
2023-05-19T05:04:44.071Z,79.30
2023-05-19T05:07:11.113Z,79.30
2023-05-19T05:09:38.817Z,79.20
2023-05-19T05:12:07.881Z,79.20
2023-05-19T05:14:36.359Z,79.10
2023-05-19T05:17:03.863Z,79.20
2023-05-19T05:19:33.175Z,78.90
2023-05-19T05:22:00.592Z,78.80
2023-05-19T05:24:27.887Z,78.80
2023-05-19T05:26:59.254Z,78.70
2023-05-19T05:29:27.201Z,78.60
2023-05-19T05:31:54.544Z,78.60
2023-05-19T05:34:22.322Z,78.50
2023-05-19T05:36:49.468Z,78.40
2023-05-19T05:39:17.921Z,78.40
2023-05-19T05:41:45.558Z,78.30
2023-05-19T05:44:12.937Z,78.20
2023-05-19T05:46:42.228Z,78.10
2023-05-19T05:49:10.191Z,78.10
2023-05-19T05:51:37.355Z,78.00
2023-05-19T05:54:05.666Z,78.00
2023-05-19T05:56:37.428Z,77.90
2023-05-19T05:59:07.270Z,77.90
2023-05-19T06:01:36.596Z,77.80
2023-05-19T06:04:05.510Z,77.70
2023-05-19T06:06:32.903Z,77.70
2023-05-19T06:09:01.934Z,77.60
2023-05-19T06:11:29.590Z,77.50
2023-05-19T06:13:58.355Z,77.50
2023-05-19T06:16:44.007Z,77.40
2023-05-19T06:19:11.335Z,77.30
2023-05-19T06:21:38.240Z,77.30
2023-05-19T06:24:05.286Z,77.30
2023-05-19T06:26:32.119Z,77.20
2023-05-19T06:28:59.879Z,77.30
2023-05-19T06:31:28.195Z,77.30
2023-05-19T06:33:58.266Z,77.70
2023-05-19T06:36:25.368Z,77.00
2023-05-19T06:38:55.479Z,76.90
2023-05-19T06:41:22.538Z,76.80
2023-05-19T06:43:51.561Z,76.70
2023-05-19T06:46:22.108Z,76.60
2023-05-19T06:48:49.013Z,76.40
2023-05-19T06:51:21.804Z,76.40
2023-05-19T06:53:52.862Z,76.40
2023-05-19T06:56:19.807Z,76.20
2023-05-19T06:58:46.778Z,76.00
2023-05-19T07:01:13.598Z,75.60
2023-05-19T07:03:46.735Z,75.10
2023-05-19T07:06:14.760Z,74.50
2023-05-19T07:08:44.539Z,74.10
2023-05-19T07:11:12.620Z,73.90
2023-05-19T07:13:41.193Z,73.70
2023-05-19T07:16:08.565Z,73.60
2023-05-19T07:18:35.589Z,73.50
2023-05-19T07:21:02.586Z,73.50
2023-05-19T07:23:29.541Z,73.50
2023-05-19T07:25:56.665Z,73.60
2023-05-19T07:28:23.835Z,73.50
2023-05-19T07:30:50.815Z,73.50
2023-05-19T07:33:17.658Z,73.40
2023-05-19T07:35:45.493Z,73.40
2023-05-19T07:38:12.496Z,73.40
2023-05-19T07:40:39.461Z,73.40
2023-05-19T07:43:06.257Z,73.40
2023-05-19T07:45:33.222Z,73.30
2023-05-19T07:48:00.097Z,73.20
2023-05-19T07:50:27.008Z,73.10
2023-05-19T07:52:53.874Z,73.00
2023-05-19T07:55:23.134Z,73.20
2023-05-19T07:57:50.957Z,73.20
2023-05-19T08:00:18.173Z,73.10
2023-05-19T08:02:45.209Z,73.10
2023-05-19T08:05:12.145Z,72.90
2023-05-19T08:07:39.139Z,72.70
2023-05-19T08:10:06.253Z,72.60
2023-05-19T08:12:33.084Z,72.60
2023-05-19T08:15:01.335Z,72.60
2023-05-19T08:17:28.581Z,72.40
2023-05-19T08:19:55.461Z,72.30
2023-05-19T08:22:22.297Z,72.70
2023-05-19T08:24:49.771Z,72.00
2023-05-19T08:27:16.763Z,71.90
2023-05-19T08:29:43.719Z,71.60
2023-05-19T08:32:13.119Z,71.40
2023-05-19T08:34:41.243Z,71.20
2023-05-19T08:37:08.192Z,71.00
2023-05-19T08:39:35.107Z,71.00
2023-05-19T08:42:02.484Z,71.00
2023-05-19T08:44:30.865Z,71.10
2023-05-19T08:46:58.082Z,71.10
2023-05-19T08:49:28.370Z,71.10
2023-05-19T08:52:30.802Z,71.00
2023-05-19T08:55:26.030Z,71.00
2023-05-19T08:57:52.957Z,70.90
2023-05-19T09:00:20.752Z,70.90
2023-05-19T09:03:01.086Z,70.80
2023-05-19T09:05:38.517Z,70.80
2023-05-19T09:08:05.478Z,70.80
2023-05-19T09:10:32.295Z,70.80
2023-05-19T09:12:59.111Z,70.80
2023-05-19T09:15:27.372Z,70.90
2023-05-19T09:18:13.326Z,70.90
2023-05-19T09:20:41.643Z,70.70
2023-05-19T09:23:08.804Z,70.80
2023-05-19T09:25:35.825Z,70.80
2023-05-19T09:28:02.809Z,70.90
2023-05-19T09:30:29.991Z,71.00
2023-05-19T09:32:57.132Z,71.10
2023-05-19T09:35:24.015Z,71.10
2023-05-19T09:37:51.124Z,70.90
2023-05-19T09:40:18.036Z,70.90
2023-05-19T09:42:44.966Z,70.90
2023-05-19T09:45:11.996Z,70.70
2023-05-19T09:47:40.071Z,70.50
2023-05-19T09:50:11.882Z,70.40
2023-05-19T09:52:39.069Z,70.20
2023-05-19T09:55:09.170Z,69.90
2023-05-19T09:57:40.129Z,69.40
2023-05-19T10:00:18.077Z,69.20
2023-05-19T10:02:46.115Z,68.80
2023-05-19T10:05:20.358Z,68.50
2023-05-19T10:07:48.613Z,68.20
2023-05-19T10:10:15.793Z,68.00
2023-05-19T10:12:42.638Z,67.80
2023-05-19T10:15:11.558Z,67.70
2023-05-19T10:17:39.869Z,67.50
2023-05-19T10:20:14.537Z,67.40
2023-05-19T10:22:42.381Z,67.40
2023-05-19T10:25:09.929Z,67.80
2023-05-19T10:27:59.090Z,67.60
2023-05-19T10:30:32.037Z,67.70
2023-05-19T10:33:00.356Z,67.80
2023-05-19T10:35:48.877Z,67.80
2023-05-19T10:38:40.171Z,67.90
2023-05-19T10:41:22.613Z,67.80
2023-05-19T10:44:21.373Z,67.60
2023-05-19T10:46:48.219Z,67.50
2023-05-19T10:49:22.633Z,67.40
2023-05-19T10:51:50.096Z,67.20
2023-05-19T10:54:18.439Z,67.70
2023-05-19T10:56:48.534Z,67.00
2023-05-19T10:59:32.401Z,66.80
2023-05-19T11:02:04.127Z,66.50
2023-05-19T11:04:41.110Z,66.20
2023-05-19T11:07:10.233Z,66.20
2023-05-19T11:09:43.231Z,66.10
2023-05-19T11:12:10.970Z,65.90
2023-05-19T11:14:37.913Z,65.30
2023-05-19T11:17:05.685Z,64.80
2023-05-19T11:19:34.420Z,64.50
2023-05-19T11:22:11.815Z,64.60
2023-05-19T11:24:46.320Z,64.70
2023-05-19T11:27:26.237Z,64.40
2023-05-19T11:29:53.910Z,64.20
2023-05-19T11:32:22.010Z,64.00
2023-05-19T11:34:50.460Z,63.50
2023-05-19T11:37:17.610Z,63.10
2023-05-19T11:39:46.086Z,62.80
2023-05-19T11:42:13.025Z,62.40
2023-05-19T11:44:41.404Z,62.10
2023-05-19T11:47:08.649Z,62.30
2023-05-19T11:49:35.641Z,61.70
2023-05-19T11:52:02.758Z,61.80
2023-05-19T11:54:33.709Z,61.60
2023-05-19T11:57:02.748Z,61.60
2023-05-19T11:59:37.196Z,61.50
2023-05-19T12:02:18.980Z,61.50
2023-05-19T12:04:46.791Z,61.60
2023-05-19T12:07:15.195Z,61.70
2023-05-19T12:09:42.558Z,61.60
2023-05-19T12:12:09.480Z,61.70
2023-05-19T12:14:37.183Z,61.70
2023-05-19T12:17:12.033Z,61.20
2023-05-19T12:19:39.188Z,60.60
2023-05-19T12:22:07.066Z,60.10
2023-05-19T12:24:37.531Z,59.60
2023-05-19T12:27:12.430Z,59.10
2023-05-19T12:29:39.775Z,59.00
2023-05-19T12:32:10.315Z,59.10
2023-05-19T12:34:38.284Z,59.00
2023-05-19T12:37:05.626Z,59.30
2023-05-19T12:39:32.843Z,59.40
2023-05-19T12:42:04.247Z,59.50
2023-05-19T12:44:33.836Z,59.20
2023-05-19T12:47:01.774Z,59.00
2023-05-19T12:49:28.750Z,58.80
2023-05-19T12:51:55.623Z,58.40
2023-05-19T12:54:22.486Z,57.90
2023-05-19T12:56:51.262Z,57.50
2023-05-19T12:59:37.305Z,57.10
2023-05-19T13:02:05.388Z,56.80
2023-05-19T13:04:32.462Z,56.40
2023-05-19T13:06:59.329Z,56.00
2023-05-19T13:09:28.367Z,55.50
2023-05-19T13:11:56.024Z,54.90
2023-05-19T13:14:22.799Z,54.50
2023-05-19T13:16:49.696Z,54.30
2023-05-19T13:19:25.405Z,54.10
2023-05-19T13:21:52.962Z,53.50
2023-05-19T13:24:19.913Z,53.00
2023-05-19T13:26:49.268Z,52.40
2023-05-19T13:29:16.138Z,52.10
2023-05-19T13:31:43.042Z,51.80
2023-05-19T13:34:09.912Z,51.60
2023-05-19T13:36:36.917Z,51.40
2023-05-19T13:39:06.292Z,51.10
2023-05-19T13:41:33.178Z,50.50
2023-05-19T13:44:00.601Z,50.30
2023-05-19T13:46:40.934Z,50.00
2023-05-19T13:49:11.966Z,49.50
2023-05-19T13:51:42.300Z,49.20
2023-05-19T13:54:09.215Z,48.70
2023-05-19T13:56:36.531Z,49.00
2023-05-19T13:59:04.082Z,49.30
2023-05-19T14:01:31.061Z,49.50
2023-05-19T14:03:58.190Z,49.70
2023-05-19T14:06:25.114Z,50.10
2023-05-19T14:08:51.980Z,49.50
2023-05-19T14:11:22.677Z,48.80
2023-05-19T14:13:52.998Z,48.40
2023-05-19T14:16:23.255Z,48.20
2023-05-19T14:18:50.332Z,48.70
2023-05-19T14:21:17.236Z,48.10
2023-05-19T14:23:44.257Z,48.30
2023-05-19T14:26:11.152Z,48.50
2023-05-19T14:28:37.987Z,48.70
2023-05-19T14:31:05.957Z,48.70
2023-05-19T14:33:35.036Z,48.90
2023-05-19T14:36:02.392Z,49.10
2023-05-19T14:38:29.697Z,49.50
2023-05-19T14:40:56.839Z,49.90
2023-05-19T14:43:23.680Z,49.40
2023-05-19T14:45:50.606Z,48.50
2023-05-19T14:48:17.685Z,47.50
2023-05-19T14:50:44.650Z,46.70
2023-05-19T14:53:11.784Z,45.70
2023-05-19T14:55:38.697Z,45.40
2023-05-19T14:58:15.982Z,44.30
2023-05-19T15:00:52.507Z,43.40
2023-05-19T15:03:19.718Z,43.10
2023-05-19T15:05:46.778Z,42.90
2023-05-19T15:08:13.685Z,42.60
2023-05-19T15:10:40.697Z,42.50
2023-05-19T15:13:07.566Z,42.60
2023-05-19T15:15:34.456Z,42.80
2023-05-19T15:18:01.388Z,43.30
2023-05-19T15:20:29.514Z,43.30
2023-05-19T15:22:56.531Z,43.00
2023-05-19T15:25:23.332Z,42.90
2023-05-19T15:27:50.370Z,41.80
2023-05-19T15:30:17.177Z,41.00
2023-05-19T15:32:44.022Z,40.10
2023-05-19T15:35:10.945Z,39.60
2023-05-19T15:37:37.844Z,39.30
2023-05-19T15:40:05.247Z,39.10
2023-05-19T15:42:32.144Z,38.90
2023-05-19T15:44:59.065Z,39.00
2023-05-19T15:47:25.963Z,39.40
2023-05-19T15:49:52.848Z,40.20
2023-05-19T15:52:19.908Z,40.60
2023-05-19T15:54:48.624Z,41.10
2023-05-19T15:57:15.539Z,41.90
2023-05-19T15:59:42.465Z,42.50
2023-05-19T16:02:09.579Z,42.50
2023-05-19T16:04:37.686Z,42.60
2023-05-19T16:07:04.662Z,41.80
2023-05-19T16:09:31.526Z,42.20
2023-05-19T16:11:58.352Z,42.60
2023-05-19T16:14:27.529Z,42.40
2023-05-19T16:16:54.492Z,41.90
2023-05-19T16:19:21.850Z,41.20
2023-05-19T16:21:48.831Z,40.80
2023-05-19T16:24:15.645Z,40.50
2023-05-19T16:26:42.435Z,40.00
2023-05-19T16:29:09.320Z,40.20
2023-05-19T16:31:36.222Z,39.40
2023-05-19T16:34:03.110Z,39.20
2023-05-19T16:36:32.398Z,39.50
2023-05-19T16:39:00.368Z,39.50
2023-05-19T16:41:27.349Z,39.50
2023-05-19T16:43:54.260Z,39.10
2023-05-19T16:46:21.154Z,38.80
2023-05-19T16:48:47.997Z,38.50
2023-05-19T16:51:15.033Z,38.20
2023-05-19T16:53:41.818Z,37.90
2023-05-19T16:56:08.657Z,37.70
2023-05-19T16:58:35.889Z,37.50
2023-05-19T17:01:04.020Z,37.60
2023-05-19T17:03:31.901Z,37.60
2023-05-19T17:05:58.907Z,37.50
2023-05-19T17:08:25.788Z,37.20
2023-05-19T17:10:52.605Z,37.30
2023-05-19T17:13:19.502Z,37.60
2023-05-19T17:15:46.386Z,38.60
2023-05-19T17:18:13.290Z,38.70
2023-05-19T17:20:40.301Z,38.90
2023-05-19T17:23:07.533Z,38.70
2023-05-19T17:25:34.681Z,38.50
2023-05-19T17:28:01.530Z,38.30
2023-05-19T17:30:28.342Z,38.20
2023-05-19T17:32:55.561Z,38.00
2023-05-19T17:35:22.442Z,38.00
2023-05-19T17:37:49.341Z,37.90
2023-05-19T17:40:16.395Z,38.50
2023-05-19T17:42:43.418Z,37.90
2023-05-19T17:45:12.367Z,37.90
2023-05-19T17:47:39.442Z,38.00
2023-05-19T17:50:06.798Z,38.20
2023-05-19T17:52:34.138Z,38.80
2023-05-19T17:55:01.283Z,39.70
2023-05-19T17:57:28.631Z,40.50
2023-05-19T17:59:55.892Z,41.30
2023-05-19T18:02:23.045Z,42.20
2023-05-19T18:04:50.095Z,43.00
2023-05-19T18:07:16.949Z,43.90
2023-05-19T18:09:46.008Z,44.70
2023-05-19T18:12:12.877Z,45.50
2023-05-19T18:14:39.988Z,46.30
2023-05-19T18:17:07.130Z,46.90
2023-05-19T18:19:33.952Z,47.50
2023-05-19T18:22:01.286Z,48.20
2023-05-19T18:24:28.192Z,48.80
2023-05-19T18:26:55.015Z,49.30
2023-05-19T18:29:22.645Z,49.80
2023-05-19T18:31:49.539Z,50.80
2023-05-19T18:34:16.472Z,50.80
2023-05-19T18:36:43.429Z,51.30
2023-05-19T18:39:10.356Z,51.60
2023-05-19T18:41:41.170Z,52.50
2023-05-19T18:44:08.196Z,52.40
2023-05-19T18:46:35.098Z,52.70
2023-05-19T18:49:03.642Z,53.10
2023-05-19T18:51:32.926Z,53.50
2023-05-19T18:53:59.767Z,53.70
2023-05-19T18:56:27.087Z,54.10
2023-05-19T18:58:57.195Z,54.50
2023-05-19T19:01:24.125Z,54.90
2023-05-19T19:03:51.321Z,55.10
2023-05-19T19:06:18.264Z,55.30
2023-05-19T19:08:45.282Z,55.60
2023-05-19T19:11:12.668Z,55.70
2023-05-19T19:13:39.823Z,55.90
2023-05-19T19:16:07.097Z,56.00
2023-05-19T19:18:35.708Z,56.30
2023-05-19T19:21:05.403Z,56.40
2023-05-19T19:23:32.598Z,56.50
2023-05-19T19:25:59.637Z,56.60
2023-05-19T19:28:26.878Z,56.80
2023-05-19T19:30:53.842Z,56.90
2023-05-19T19:33:20.840Z,57.00
2023-05-19T19:35:47.793Z,57.10
2023-05-19T19:38:14.708Z,57.20
2023-05-19T19:40:41.532Z,57.60
2023-05-19T19:43:08.418Z,57.80
2023-05-19T19:45:36.317Z,58.00
2023-05-19T19:48:03.250Z,58.10
2023-05-19T19:50:30.132Z,58.30
2023-05-19T19:52:56.991Z,58.40
2023-05-19T19:55:23.984Z,58.60
2023-05-19T19:57:51.577Z,58.90
2023-05-19T20:00:18.651Z,59.30
2023-05-19T20:03:02.847Z,59.50
2023-05-19T20:05:31.080Z,59.50
2023-05-19T20:07:58.004Z,59.50
2023-05-19T20:10:24.967Z,59.50
2023-05-19T20:12:54.867Z,59.70
2023-05-19T20:15:21.796Z,59.70
2023-05-19T20:17:48.623Z,59.80
2023-05-19T20:20:15.523Z,59.80
2023-05-19T20:22:44.346Z,59.90
2023-05-19T20:25:11.164Z,60.70
2023-05-19T20:27:37.996Z,60.90
2023-05-19T20:30:05.290Z,60.40
2023-05-19T20:32:35.152Z,60.50
2023-05-19T20:35:02.210Z,60.50
2023-05-19T20:37:29.076Z,60.70
2023-05-19T20:39:55.944Z,61.40
2023-05-19T20:42:22.850Z,60.90
2023-05-19T20:44:50.031Z,61.00
2023-05-19T20:47:19.221Z,61.10
2023-05-19T20:49:46.222Z,61.40
2023-05-19T20:52:13.050Z,61.60
2023-05-19T20:54:39.899Z,62.00
2023-05-19T20:57:09.307Z,62.30
2023-05-19T20:59:36.352Z,62.60
2023-05-19T21:02:03.227Z,62.90
2023-05-19T21:04:30.447Z,63.20
2023-05-19T21:06:57.341Z,63.60
2023-05-19T21:09:24.283Z,63.80
2023-05-19T21:11:53.570Z,64.00
2023-05-19T21:14:21.246Z,64.20
2023-05-19T21:16:53.798Z,64.50
2023-05-19T21:19:20.897Z,64.60
2023-05-19T21:21:48.125Z,64.60
2023-05-19T21:24:15.193Z,64.90
2023-05-19T21:26:45.732Z,65.20
2023-05-19T21:29:12.747Z,65.50
2023-05-19T21:31:39.598Z,65.50
2023-05-19T21:34:07.833Z,65.70
2023-05-19T21:36:36.664Z,65.90
2023-05-19T21:39:04.512Z,66.00
2023-05-19T21:41:32.382Z,65.90
2023-05-19T21:43:59.265Z,65.70
2023-05-19T21:46:28.003Z,65.60
2023-05-19T21:48:55.148Z,65.50
2023-05-19T21:51:22.018Z,65.50
2023-05-19T21:53:48.906Z,65.60
2023-05-19T21:56:16.517Z,65.70
2023-05-19T21:58:43.345Z,65.80
2023-05-19T22:01:12.054Z,65.90
2023-05-19T22:03:38.981Z,66.00
2023-05-19T22:06:07.475Z,66.00
2023-05-19T22:08:34.335Z,66.20
2023-05-19T22:11:01.324Z,66.30
2023-05-19T22:13:28.234Z,66.40
2023-05-19T22:15:55.244Z,66.50
2023-05-19T22:18:22.214Z,66.70
2023-05-19T22:20:49.117Z,66.80
2023-05-19T22:23:15.950Z,66.90
2023-05-19T22:25:45.319Z,67.00
2023-05-19T22:28:12.231Z,67.20
2023-05-19T22:30:40.896Z,67.80
2023-05-19T22:33:11.955Z,67.50
2023-05-19T22:35:38.918Z,67.60
2023-05-19T22:38:07.480Z,67.60
2023-05-19T22:40:38.406Z,67.80
2023-05-19T22:43:05.508Z,67.90
2023-05-19T22:45:33.812Z,67.90
2023-05-19T22:48:01.203Z,68.00
2023-05-19T22:50:28.654Z,68.10
2023-05-19T22:52:55.570Z,68.40
2023-05-19T22:55:25.333Z,68.40
2023-05-19T22:57:52.175Z,68.50
2023-05-19T23:00:20.711Z,68.70
2023-05-19T23:02:47.714Z,68.90
2023-05-19T23:05:14.693Z,69.10
2023-05-19T23:07:42.924Z,69.20
2023-05-19T23:10:10.093Z,69.20
2023-05-19T23:12:37.127Z,69.30
2023-05-19T23:15:04.296Z,69.30
2023-05-19T23:17:31.294Z,69.20
2023-05-19T23:19:58.272Z,69.30
2023-05-19T23:22:25.233Z,69.40
2023-05-19T23:24:52.139Z,69.40
2023-05-19T23:27:18.990Z,69.50
2023-05-19T23:29:49.375Z,69.40
2023-05-19T23:32:16.670Z,69.60
2023-05-19T23:34:43.574Z,69.40
2023-05-19T23:37:10.491Z,69.50
2023-05-19T23:39:38.291Z,69.50
2023-05-19T23:42:06.039Z,70.10
2023-05-19T23:44:33.067Z,69.70
2023-05-19T23:47:00.038Z,69.80
2023-05-19T23:49:26.950Z,69.90
2023-05-19T23:51:53.845Z,70.10
2023-05-19T23:54:20.758Z,70.20
2023-05-19T23:56:47.700Z,70.30
2023-05-19T23:59:14.590Z,70.30
